Time;durP1;ratioP1;P1;durP2;ratioP2;P2;SDS_P1;SDS_P2;PMS_P1;PMS_P2;Temp;Humidity;BMP_temperature;BMP_pressure;BME280_temperature;BME280_humidity;BME280_pressure;Samples;Min_cycle;Max_cycle;Signal;HPM_P1;HPM_P2
2022/12/07 00:00:03;;;;;;;17.00;12.33;;;;;;;;;;518729;28;1587;-61
2022/12/07 00:00:18;;;;;;;16.83;12.13;;;;;;;;;;518928;28;1254;-61
2022/12/07 00:00:34;;;;;;;14.98;10.98;;;;;;;;;;519751;28;1217;-61
2022/12/07 00:00:49;;;;;;;14.13;10.93;;;;;;;;;;520189;28;1202;-61
2022/12/07 00:01:09;;;;;;;14.03;11.20;;;;;;;;;;520514;28;1182;-61
2022/12/07 00:01:30;;;;;;;13.57;10.98;;;;;;;;;;522597;28;1363;-61
2022/12/07 00:01:46;;;;;;;14.63;11.10;;;;;;;;;;521047;28;1160;-61
2022/12/07 00:02:02;;;;;;;14.43;11.27;;;;;;;;;;522866;28;1472;-61
2022/12/07 00:02:17;;;;;;;13.67;11.03;;;;;;;;;;521440;28;1416;-62
2022/12/07 00:02:32;;;;;;;13.75;10.85;;;;;;;;;;523773;28;1121;-61
2022/12/07 00:02:47;;;;;;;14.67;10.93;;;;;;;;;;522743;28;1219;-61
2022/12/07 00:03:03;;;;;;;14.93;10.93;;;;;;;;;;520926;28;1439;-61
2022/12/07 00:03:18;;;;;;;14.63;11.30;;;;;;;;;;518804;28;1114;-61
2022/12/07 00:03:34;;;;;;;15.20;11.30;;;;;;;;;;519120;28;1267;-61
2022/12/07 00:03:53;;;;;;;15.00;10.98;;;;;;;;;;518339;28;1471;-61
2022/12/07 00:04:12;;;;;;;14.20;10.90;;;;;;;;;;520216;28;1079;-61
2022/12/07 00:04:27;;;;;;;14.40;11.10;;;;;;;;;;520699;28;1228;-61
2022/12/07 00:04:42;;;;;;;14.23;11.30;;;;;;;;;;521115;28;1198;-61
2022/12/07 00:04:58;;;;;;;14.53;11.40;;;;;;;;;;522135;28;1317;-61
2022/12/07 00:05:13;;;;;;;15.00;11.17;;;;;;;;;;520857;28;1145;-61
2022/12/07 00:05:29;;;;;;;14.30;11.07;;;;;;;;;;519954;28;1141;-61
2022/12/07 00:05:45;;;;;;;13.25;10.80;;;;;;;;;;519290;28;1249;-62
2022/12/07 00:06:02;;;;;;;14.10;11.13;;;;;;;;;;519511;28;1209;-61
2022/12/07 00:06:19;;;;;;;14.30;11.15;;;;;;;;;;515279;28;1266;-62
2022/12/07 00:06:36;;;;;;;13.90;10.80;;;;;;;;;;517555;28;1463;-61
2022/12/07 00:06:52;;;;;;;14.85;10.80;;;;;;;;;;517653;28;1043;-61
2022/12/07 00:07:07;;;;;;;14.82;11.07;;;;;;;;;;517143;28;1491;-61
2022/12/07 00:07:23;;;;;;;14.53;11.40;;;;;;;;;;518289;28;1349;-61
2022/12/07 00:07:38;;;;;;;14.85;11.43;;;;;;;;;;519076;28;1345;-61
2022/12/07 00:07:53;;;;;;;14.53;11.17;;;;;;;;;;517516;28;1237;-61
2022/12/07 00:08:09;;;;;;;15.23;11.20;;;;;;;;;;518774;28;1217;-61
2022/12/07 00:08:24;;;;;;;16.08;11.65;;;;;;;;;;518951;28;1205;-62
2022/12/07 00:08:40;;;;;;;15.47;11.23;;;;;;;;;;518904;28;1138;-61
2022/12/07 00:08:55;;;;;;;17.05;11.15;;;;;;;;;;520801;28;1069;-61
2022/12/07 00:09:13;;;;;;;17.20;11.47;;;;;;;;;;515984;28;1212;-61
2022/12/07 00:09:28;;;;;;;16.38;11.73;;;;;;;;;;520118;28;1141;-61
2022/12/07 00:09:44;;;;;;;16.10;11.70;;;;;;;;;;520865;28;1131;-63
2022/12/07 00:09:59;;;;;;;15.60;11.52;;;;;;;;;;525220;28;1144;-61
2022/12/07 00:10:14;;;;;;;15.67;11.37;;;;;;;;;;520254;28;1398;-61
2022/12/07 00:10:29;;;;;;;16.37;11.30;;;;;;;;;;523212;28;1538;-61
2022/12/07 00:10:45;;;;;;;16.20;11.30;;;;;;;;;;523830;28;1200;-61
2022/12/07 00:11:02;;;;;;;14.83;10.90;;;;;;;;;;522138;28;1107;-61
2022/12/07 00:11:22;;;;;;;16.90;11.60;;;;;;;;;;519889;28;1567;-61
2022/12/07 00:11:37;;;;;;;21.20;14.30;;;;;;;;;;521387;28;1260;-61
2022/12/07 00:11:52;;;;;;;18.33;13.07;;;;;;;;;;519374;28;1250;-61
2022/12/07 00:12:08;;;;;;;15.40;11.85;;;;;;;;;;521444;28;1317;-61
2022/12/07 00:12:23;;;;;;;16.97;12.40;;;;;;;;;;521255;28;1328;-61
2022/12/07 00:12:38;;;;;;;17.13;12.23;;;;;;;;;;521665;28;1129;-61
2022/12/07 00:12:53;;;;;;;16.70;11.90;;;;;;;;;;522626;28;1328;-61
2022/12/07 00:13:09;;;;;;;17.30;11.80;;;;;;;;;;521183;28;1618;-61
2022/12/07 00:13:24;;;;;;;16.97;11.73;;;;;;;;;;522863;28;1261;-61
2022/12/07 00:13:40;;;;;;;16.97;12.10;;;;;;;;;;522871;28;1089;-61
2022/12/07 00:13:58;;;;;;;18.35;12.77;;;;;;;;;;522366;28;1093;-61
2022/12/07 00:14:14;;;;;;;16.55;11.70;;;;;;;;;;520780;28;1362;-61
2022/12/07 00:14:30;;;;;;;14.23;10.48;;;;;;;;;;520450;28;2441;-61
2022/12/07 00:14:46;;;;;;;15.27;11.00;;;;;;;;;;523358;28;1315;-61
2022/12/07 00:15:02;;;;;;;15.75;11.52;;;;;;;;;;522298;28;1216;-61
2022/12/07 00:15:17;;;;;;;15.02;11.27;;;;;;;;;;522091;28;1232;-61
2022/12/07 00:15:34;;;;;;;16.00;11.67;;;;;;;;;;526281;27;1005;-61
2022/12/07 00:15:49;;;;;;;18.10;12.48;;;;;;;;;;525919;27;1140;-61
2022/12/07 00:16:08;;;;;;;21.67;13.57;;;;;;;;;;524619;28;1141;-61
2022/12/07 00:16:25;;;;;;;23.23;14.65;;;;;;;;;;522750;28;1561;-61
2022/12/07 00:16:42;;;;;;;19.10;13.13;;;;;;;;;;523599;28;1236;-61
2022/12/07 00:16:57;;;;;;;15.57;11.60;;;;;;;;;;523126;28;1316;-62
2022/12/07 00:17:12;;;;;;;16.27;12.20;;;;;;;;;;523358;28;1081;-61
2022/12/07 00:17:27;;;;;;;16.20;12.00;;;;;;;;;;518617;28;1212;-61
2022/12/07 00:17:43;;;;;;;16.20;11.60;;;;;;;;;;522922;28;1195;-61
2022/12/07 00:17:58;;;;;;;16.00;11.80;;;;;;;;;;522144;28;1201;-64
2022/12/07 00:18:13;;;;;;;17.48;12.07;;;;;;;;;;520128;28;1582;-61
2022/12/07 00:18:29;;;;;;;18.07;12.10;;;;;;;;;;521219;28;1177;-61
2022/12/07 00:18:45;;;;;;;16.23;11.80;;;;;;;;;;518680;28;1267;-61
2022/12/07 00:19:00;;;;;;;14.27;11.02;;;;;;;;;;520880;28;1236;-60
2022/12/07 00:19:16;;;;;;;14.63;11.10;;;;;;;;;;521960;28;1413;-61
2022/12/07 00:19:31;;;;;;;15.10;11.60;;;;;;;;;;522821;28;1428;-61
2022/12/07 00:19:46;;;;;;;14.88;11.75;;;;;;;;;;521440;28;1372;-62
2022/12/07 00:20:02;;;;;;;15.33;11.77;;;;;;;;;;523691;27;1089;-61
2022/12/07 00:20:17;;;;;;;15.85;11.88;;;;;;;;;;523827;28;1393;-61
2022/12/07 00:20:33;;;;;;;16.03;12.27;;;;;;;;;;523318;28;1034;-61
2022/12/07 00:20:48;;;;;;;15.10;11.90;;;;;;;;;;522774;28;1240;-61
2022/12/07 00:21:05;;;;;;;14.80;11.13;;;;;;;;;;520796;28;1088;-61
2022/12/07 00:21:26;;;;;;;14.07;11.02;;;;;;;;;;520762;28;1268;-61
2022/12/07 00:21:42;;;;;;;14.07;10.65;;;;;;;;;;522100;28;1239;-61
2022/12/07 00:21:57;;;;;;;14.60;11.30;;;;;;;;;;522222;28;1214;-61
2022/12/07 00:22:13;;;;;;;15.37;11.50;;;;;;;;;;526046;27;1219;-61
2022/12/07 00:22:28;;;;;;;14.55;10.95;;;;;;;;;;525435;27;1549;-62
2022/12/07 00:22:43;;;;;;;15.47;11.73;;;;;;;;;;525145;28;1244;-61
2022/12/07 00:22:59;;;;;;;18.53;12.77;;;;;;;;;;521472;28;1172;-62
2022/12/07 00:23:14;;;;;;;20.75;13.07;;;;;;;;;;522647;28;1380;-61
2022/12/07 00:23:29;;;;;;;20.57;13.40;;;;;;;;;;519575;28;1412;-61
2022/12/07 00:23:46;;;;;;;21.53;13.83;;;;;;;;;;519241;28;1373;-61
2022/12/07 00:24:04;;;;;;;22.67;14.00;;;;;;;;;;516838;28;1705;-61
2022/12/07 00:24:19;;;;;;;20.90;13.55;;;;;;;;;;516875;28;1307;-61
2022/12/07 00:24:34;;;;;;;22.53;14.27;;;;;;;;;;519982;28;1225;-62
2022/12/07 00:24:49;;;;;;;28.60;16.47;;;;;;;;;;518918;28;1259;-61
2022/12/07 00:25:05;;;;;;;25.85;15.60;;;;;;;;;;520353;28;1190;-61
2022/12/07 00:25:20;;;;;;;22.07;14.27;;;;;;;;;;521842;28;1341;-61
2022/12/07 00:25:35;;;;;;;21.30;13.40;;;;;;;;;;521504;28;1219;-61
2022/12/07 00:25:51;;;;;;;18.38;12.35;;;;;;;;;;523262;28;1165;-62
2022/12/07 00:26:11;;;;;;;18.67;12.57;;;;;;;;;;521952;28;1412;-61
2022/12/07 00:26:29;;;;;;;21.10;13.27;;;;;;;;;;523039;28;1277;-62
2022/12/07 00:26:45;;;;;;;20.83;13.23;;;;;;;;;;523173;27;1518;-61
2022/12/07 00:27:00;;;;;;;19.73;13.15;;;;;;;;;;524067;27;1271;-61
2022/12/07 00:27:15;;;;;;;19.03;13.10;;;;;;;;;;525650;27;995;-62
2022/12/07 00:27:30;;;;;;;20.15;13.73;;;;;;;;;;523292;28;1346;-61
2022/12/07 00:27:46;;;;;;;22.97;14.50;;;;;;;;;;523317;28;1053;-61
2022/12/07 00:28:01;;;;;;;24.43;14.83;;;;;;;;;;524702;28;1050;-61
2022/12/07 00:28:16;;;;;;;26.97;16.13;;;;;;;;;;520886;28;1238;-61
2022/12/07 00:28:33;;;;;;;28.05;16.50;;;;;;;;;;522049;28;1346;-61
2022/12/07 00:28:51;;;;;;;21.75;13.73;;;;;;;;;;519849;28;1330;-61
2022/12/07 00:29:12;;;;;;;15.07;11.05;;;;;;;;;;519423;28;1201;-61
2022/12/07 00:29:28;;;;;;;15.35;10.93;;;;;;;;;;517941;28;1437;-61
2022/12/07 00:29:43;;;;;;;16.10;11.33;;;;;;;;;;516499;28;1179;-62
2022/12/07 00:29:58;;;;;;;15.40;10.97;;;;;;;;;;514597;28;1601;-61
2022/12/07 00:30:14;;;;;;;14.02;10.65;;;;;;;;;;515429;28;1147;-61
2022/12/07 00:30:29;;;;;;;12.73;10.43;;;;;;;;;;516615;28;1219;-61
2022/12/07 00:30:44;;;;;;;12.77;10.20;;;;;;;;;;516089;28;1291;-61
2022/12/07 00:31:05;;;;;;;13.13;10.23;;;;;;;;;;516277;28;1218;-61
2022/12/07 00:31:22;;;;;;;13.30;10.50;;;;;;;;;;517955;28;1181;-61
2022/12/07 00:31:40;;;;;;;13.40;10.38;;;;;;;;;;516472;28;1345;-62
2022/12/07 00:31:56;;;;;;;13.30;10.25;;;;;;;;;;517919;28;1294;-61
2022/12/07 00:32:11;;;;;;;12.97;10.00;;;;;;;;;;520374;28;1201;-61
2022/12/07 00:32:26;;;;;;;12.98;9.88;;;;;;;;;;518240;28;1351;-61
2022/12/07 00:32:41;;;;;;;13.50;10.40;;;;;;;;;;516758;28;1339;-61
2022/12/07 00:32:57;;;;;;;14.30;10.50;;;;;;;;;;520705;28;1361;-61
2022/12/07 00:33:12;;;;;;;14.43;10.40;;;;;;;;;;518579;28;1538;-61
2022/12/07 00:33:28;;;;;;;13.73;10.43;;;;;;;;;;517560;28;1228;-61
2022/12/07 00:33:43;;;;;;;14.20;10.30;;;;;;;;;;518398;28;1332;-61
2022/12/07 00:33:59;;;;;;;14.57;10.20;;;;;;;;;;517399;28;1214;-63
2022/12/07 00:34:17;;;;;;;14.00;10.25;;;;;;;;;;516720;28;1305;-61
2022/12/07 00:34:32;;;;;;;13.50;9.95;;;;;;;;;;515834;28;1914;-61
2022/12/07 00:34:48;;;;;;;14.43;10.70;;;;;;;;;;517260;28;1395;-61
2022/12/07 00:35:03;;;;;;;14.30;10.65;;;;;;;;;;513219;28;1095;-62
2022/12/07 00:35:19;;;;;;;13.97;10.47;;;;;;;;;;512769;28;1218;-61
2022/12/07 00:35:34;;;;;;;13.43;10.38;;;;;;;;;;516490;28;1028;-61
2022/12/07 00:35:55;;;;;;;12.67;10.10;;;;;;;;;;519540;28;1287;-61
2022/12/07 00:36:13;;;;;;;13.05;10.55;;;;;;;;;;521358;28;2201;-61
2022/12/07 00:36:28;;;;;;;12.95;10.40;;;;;;;;;;522702;28;1135;-61
2022/12/07 00:36:44;;;;;;;13.00;10.13;;;;;;;;;;522832;28;1137;-61
2022/12/07 00:36:59;;;;;;;14.05;10.10;;;;;;;;;;519931;28;1757;-61
2022/12/07 00:37:14;;;;;;;14.77;10.10;;;;;;;;;;523313;28;1489;-62
2022/12/07 00:37:30;;;;;;;14.50;10.20;;;;;;;;;;524643;28;1074;-61
2022/12/07 00:37:45;;;;;;;13.48;10.15;;;;;;;;;;522172;28;1312;-61
2022/12/07 00:38:00;;;;;;;12.53;10.00;;;;;;;;;;522526;28;1258;-61
2022/12/07 00:38:15;;;;;;;12.63;10.10;;;;;;;;;;522252;28;1313;-61
2022/12/07 00:38:32;;;;;;;13.43;10.20;;;;;;;;;;521968;28;1163;-61
2022/12/07 00:38:48;;;;;;;14.02;10.45;;;;;;;;;;519003;28;1319;-61
2022/12/07 00:39:04;;;;;;;12.53;10.07;;;;;;;;;;521831;28;1303;-61
2022/12/07 00:39:19;;;;;;;12.33;10.00;;;;;;;;;;523450;28;1133;-61
2022/12/07 00:39:34;;;;;;;12.33;10.17;;;;;;;;;;519100;28;1281;-61
2022/12/07 00:39:50;;;;;;;13.60;10.50;;;;;;;;;;521066;28;1307;-62
2022/12/07 00:40:06;;;;;;;14.43;10.75;;;;;;;;;;517421;28;1366;-61
2022/12/07 00:40:21;;;;;;;14.45;10.50;;;;;;;;;;518877;28;1322;-61
2022/12/07 00:40:36;;;;;;;14.70;10.53;;;;;;;;;;520849;28;1172;-61
2022/12/07 00:41:21;;;;;;;13.87;10.13;;;;;;;;;;517139;28;1220;-61
2022/12/07 00:41:36;;;;;;;14.32;10.10;;;;;;;;;;517163;28;1346;-61
2022/12/07 00:41:52;;;;;;;13.40;9.83;;;;;;;;;;520146;28;1348;-61
2022/12/07 00:42:07;;;;;;;13.33;10.17;;;;;;;;;;516972;28;1346;-61
2022/12/07 00:42:22;;;;;;;14.27;10.33;;;;;;;;;;519980;28;1062;-61
2022/12/07 00:42:37;;;;;;;14.73;10.10;;;;;;;;;;521571;28;1146;-61
2022/12/07 00:42:53;;;;;;;14.57;10.20;;;;;;;;;;519518;28;1411;-61
2022/12/07 00:43:08;;;;;;;14.00;10.33;;;;;;;;;;519428;28;1232;-61
2022/12/07 00:43:23;;;;;;;13.60;10.40;;;;;;;;;;517842;28;1093;-61
2022/12/07 00:43:40;;;;;;;14.20;10.55;;;;;;;;;;519609;28;1282;-61
2022/12/07 00:43:56;;;;;;;13.80;10.07;;;;;;;;;;522177;28;1043;-61
2022/12/07 00:44:11;;;;;;;12.50;9.73;;;;;;;;;;524692;28;1053;-61
2022/12/07 00:44:26;;;;;;;12.30;9.95;;;;;;;;;;523713;28;1161;-61
2022/12/07 00:44:42;;;;;;;14.83;10.50;;;;;;;;;;523109;28;1245;-61
2022/12/07 00:44:57;;;;;;;14.40;10.37;;;;;;;;;;523014;28;1305;-61
2022/12/07 00:45:12;;;;;;;13.10;10.13;;;;;;;;;;523907;28;1168;-61
2022/12/07 00:45:27;;;;;;;14.68;10.40;;;;;;;;;;523046;28;1487;-61
2022/12/07 00:45:43;;;;;;;14.90;10.13;;;;;;;;;;522989;28;1276;-61
2022/12/07 00:45:58;;;;;;;14.03;10.23;;;;;;;;;;519708;28;1137;-60
2022/12/07 00:46:15;;;;;;;14.52;10.75;;;;;;;;;;519969;28;1142;-60
2022/12/07 00:46:30;;;;;;;14.57;10.60;;;;;;;;;;520391;28;1270;-60
2022/12/07 00:46:46;;;;;;;13.57;10.18;;;;;;;;;;521229;28;1129;-60
2022/12/07 00:47:01;;;;;;;13.93;10.30;;;;;;;;;;519228;28;1313;-60
2022/12/07 00:47:16;;;;;;;14.32;10.13;;;;;;;;;;518849;28;1349;-61
2022/12/07 00:47:32;;;;;;;13.93;10.07;;;;;;;;;;522280;28;1133;-60
2022/12/07 00:47:47;;;;;;;14.30;10.20;;;;;;;;;;524058;28;1212;-60
2022/12/07 00:48:02;;;;;;;15.38;10.48;;;;;;;;;;521285;28;1210;-60
2022/12/07 00:48:18;;;;;;;14.97;10.43;;;;;;;;;;521345;28;1317;-60
2022/12/07 00:48:33;;;;;;;15.57;10.50;;;;;;;;;;519129;28;1299;-61
2022/12/07 00:48:50;;;;;;;15.52;10.60;;;;;;;;;;521901;28;1138;-60
2022/12/07 00:49:05;;;;;;;14.35;10.82;;;;;;;;;;525599;27;1140;-62
2022/12/07 00:49:21;;;;;;;14.67;10.83;;;;;;;;;;524176;28;1420;-60
2022/12/07 00:49:36;;;;;;;13.88;10.45;;;;;;;;;;522731;28;1185;-60
2022/12/07 00:49:51;;;;;;;13.07;10.00;;;;;;;;;;521884;28;1243;-61
2022/12/07 00:50:07;;;;;;;13.87;10.20;;;;;;;;;;523513;28;1324;-60
2022/12/07 00:50:22;;;;;;;14.57;10.60;;;;;;;;;;522365;28;1116;-60
2022/12/07 00:50:37;;;;;;;14.30;10.50;;;;;;;;;;523072;28;1171;-60
2022/12/07 00:50:53;;;;;;;13.03;10.07;;;;;;;;;;521446;28;1263;-61
2022/12/07 00:51:11;;;;;;;14.02;10.02;;;;;;;;;;519254;28;1287;-61
2022/12/07 00:51:26;;;;;;;14.40;10.63;;;;;;;;;;520888;28;1145;-61
2022/12/07 00:51:42;;;;;;;16.40;11.07;;;;;;;;;;519638;28;1235;-61
2022/12/07 00:51:57;;;;;;;17.02;11.15;;;;;;;;;;518643;28;1306;-61
2022/12/07 00:52:12;;;;;;;14.10;10.70;;;;;;;;;;520973;28;1177;-61
2022/12/07 00:52:27;;;;;;;13.87;10.33;;;;;;;;;;519569;28;1290;-61
2022/12/07 00:52:43;;;;;;;13.77;10.33;;;;;;;;;;519374;28;1154;-60
2022/12/07 00:52:58;;;;;;;15.02;10.70;;;;;;;;;;520588;28;1221;-60
2022/12/07 00:53:14;;;;;;;15.80;10.67;;;;;;;;;;519533;28;1144;-61
2022/12/07 00:53:30;;;;;;;13.80;10.35;;;;;;;;;;519100;28;1243;-61
2022/12/07 00:53:46;;;;;;;12.60;10.38;;;;;;;;;;522534;28;1129;-61
2022/12/07 00:54:01;;;;;;;13.05;10.05;;;;;;;;;;524386;28;1188;-61
2022/12/07 00:54:16;;;;;;;13.67;10.07;;;;;;;;;;523751;27;1180;-61
2022/12/07 00:54:32;;;;;;;14.05;10.25;;;;;;;;;;527373;27;1977;-61
2022/12/07 00:54:47;;;;;;;14.83;10.40;;;;;;;;;;524978;27;1172;-61
2022/12/07 00:55:03;;;;;;;15.13;10.60;;;;;;;;;;524165;28;1188;-61
2022/12/07 00:55:18;;;;;;;14.32;10.60;;;;;;;;;;522890;28;1211;-61
2022/12/07 00:55:34;;;;;;;13.60;10.57;;;;;;;;;;519731;28;1213;-61
2022/12/07 00:55:50;;;;;;;13.57;10.40;;;;;;;;;;520086;28;1234;-61
2022/12/07 00:56:06;;;;;;;14.13;10.60;;;;;;;;;;520570;28;1389;-61
2022/12/07 00:56:24;;;;;;;14.55;10.75;;;;;;;;;;521618;28;1402;-61
2022/12/07 00:56:40;;;;;;;13.88;10.55;;;;;;;;;;521069;28;1514;-61
2022/12/07 00:56:55;;;;;;;13.35;10.30;;;;;;;;;;520558;28;1059;-61
2022/12/07 00:57:10;;;;;;;12.93;10.03;;;;;;;;;;521344;28;1121;-61
2022/12/07 00:57:25;;;;;;;12.38;10.05;;;;;;;;;;520639;28;1544;-61
2022/12/07 00:57:41;;;;;;;12.77;10.23;;;;;;;;;;518846;28;1311;-61
2022/12/07 00:57:56;;;;;;;12.90;10.03;;;;;;;;;;518226;28;1245;-61
2022/12/07 00:58:11;;;;;;;12.53;9.73;;;;;;;;;;517845;28;1314;-61
2022/12/07 00:58:27;;;;;;;14.13;9.93;;;;;;;;;;519540;28;1228;-61
2022/12/07 00:58:42;;;;;;;14.97;9.93;;;;;;;;;;516456;28;1214;-61
2022/12/07 00:59:00;;;;;;;14.13;9.97;;;;;;;;;;516195;28;1186;-61
2022/12/07 00:59:15;;;;;;;13.82;9.98;;;;;;;;;;515043;28;1140;-61
2022/12/07 00:59:31;;;;;;;14.10;10.10;;;;;;;;;;516572;28;1452;-61
2022/12/07 00:59:46;;;;;;;13.63;10.30;;;;;;;;;;517524;28;1155;-61
2022/12/07 01:00:01;;;;;;;14.20;10.30;;;;;;;;;;517702;28;1035;-61
2022/12/07 01:00:17;;;;;;;13.85;10.35;;;;;;;;;;516308;28;1208;-61
2022/12/07 01:00:34;;;;;;;12.93;10.30;;;;;;;;;;518457;28;1176;-61
2022/12/07 01:00:50;;;;;;;12.90;10.10;;;;;;;;;;520649;28;1080;-61
2022/12/07 01:01:07;;;;;;;14.35;10.30;;;;;;;;;;520070;28;1241;-61
2022/12/07 01:01:24;;;;;;;15.32;10.88;;;;;;;;;;523315;28;1201;-61
2022/12/07 01:01:40;;;;;;;15.10;10.70;;;;;;;;;;522285;28;1275;-61
2022/12/07 01:01:55;;;;;;;15.13;10.73;;;;;;;;;;522623;28;1326;-61
2022/12/07 01:02:10;;;;;;;14.20;10.70;;;;;;;;;;521367;28;1220;-61
2022/12/07 01:02:26;;;;;;;13.33;10.23;;;;;;;;;;522515;28;1157;-61
2022/12/07 01:02:41;;;;;;;13.10;10.30;;;;;;;;;;517976;28;1426;-61
2022/12/07 01:02:56;;;;;;;13.32;10.60;;;;;;;;;;520485;28;1242;-61
2022/12/07 01:03:17;;;;;;;14.07;10.47;;;;;;;;;;521292;28;1314;-61
2022/12/07 01:03:32;;;;;;;13.45;10.13;;;;;;;;;;522472;28;1070;-61
2022/12/07 01:03:48;;;;;;;13.13;10.00;;;;;;;;;;523710;27;1052;-61
2022/12/07 01:04:04;;;;;;;13.93;10.40;;;;;;;;;;522916;28;1119;-62
2022/12/07 01:04:19;;;;;;;14.90;10.60;;;;;;;;;;520010;28;1196;-61
2022/12/07 01:04:34;;;;;;;14.13;10.35;;;;;;;;;;519358;28;1307;-61
2022/12/07 01:04:49;;;;;;;13.30;10.30;;;;;;;;;;517553;28;1224;-61
2022/12/07 01:05:06;;;;;;;13.67;10.27;;;;;;;;;;517817;28;1437;-61
2022/12/07 01:05:21;;;;;;;14.90;10.05;;;;;;;;;;515424;28;1324;-61
2022/12/07 01:05:37;;;;;;;14.10;9.90;;;;;;;;;;517615;28;1286;-61
2022/12/07 01:05:54;;;;;;;13.70;10.23;;;;;;;;;;519213;28;1321;-61
2022/12/07 01:06:14;;;;;;;13.98;10.52;;;;;;;;;;519799;28;1235;-61
2022/12/07 01:06:30;;;;;;;13.05;10.30;;;;;;;;;;518860;28;1615;-61
2022/12/07 01:06:45;;;;;;;12.77;9.95;;;;;;;;;;518261;28;1186;-61
2022/12/07 01:07:01;;;;;;;12.67;9.73;;;;;;;;;;520740;28;1137;-61
2022/12/07 01:07:16;;;;;;;12.77;9.57;;;;;;;;;;519233;28;1322;-61
2022/12/07 01:07:31;;;;;;;12.43;9.73;;;;;;;;;;522153;28;1134;-61
2022/12/07 01:07:46;;;;;;;12.07;9.87;;;;;;;;;;521957;28;1341;-61
2022/12/07 01:08:02;;;;;;;12.93;9.60;;;;;;;;;;519831;28;1194;-61
2022/12/07 01:08:18;;;;;;;14.30;9.65;;;;;;;;;;522043;28;1262;-61
2022/12/07 01:08:33;;;;;;;14.82;9.75;;;;;;;;;;522277;28;1282;-61
2022/12/07 01:08:49;;;;;;;13.27;9.90;;;;;;;;;;520634;28;1453;-62
2022/12/07 01:09:05;;;;;;;12.20;9.88;;;;;;;;;;521076;28;1161;-61
2022/12/07 01:09:21;;;;;;;12.73;10.20;;;;;;;;;;520772;28;1098;-61
2022/12/07 01:09:36;;;;;;;12.73;10.00;;;;;;;;;;519991;28;1091;-59
2022/12/07 01:09:51;;;;;;;12.83;9.73;;;;;;;;;;520915;28;1368;-61
2022/12/07 01:10:07;;;;;;;13.10;10.00;;;;;;;;;;521007;28;1183;-61
2022/12/07 01:10:22;;;;;;;13.48;10.27;;;;;;;;;;523244;28;1254;-61
2022/12/07 01:10:37;;;;;;;13.00;10.13;;;;;;;;;;520029;28;1196;-61
2022/12/07 01:11:00;;;;;;;12.75;9.77;;;;;;;;;;517874;28;1239;-61
2022/12/07 01:11:19;;;;;;;13.52;9.85;;;;;;;;;;517095;28;1027;-61
2022/12/07 01:11:34;;;;;;;15.88;9.85;;;;;;;;;;518649;28;1279;-61
2022/12/07 01:11:50;;;;;;;15.18;9.93;;;;;;;;;;519369;28;969;-61
2022/12/07 01:12:05;;;;;;;13.33;10.00;;;;;;;;;;520134;28;1278;-61
2022/12/07 01:12:20;;;;;;;14.13;10.00;;;;;;;;;;520425;28;1183;-61
2022/12/07 01:12:35;;;;;;;13.68;10.13;;;;;;;;;;523117;28;1054;-61
2022/12/07 01:12:51;;;;;;;12.07;9.57;;;;;;;;;;523118;28;1347;-61
2022/12/07 01:13:06;;;;;;;12.83;9.73;;;;;;;;;;521357;28;1377;-61
2022/12/07 01:13:21;;;;;;;13.75;10.10;;;;;;;;;;521975;28;1037;-61
2022/12/07 01:13:37;;;;;;;13.77;10.30;;;;;;;;;;519751;28;1332;-61
2022/12/07 01:13:54;;;;;;;13.90;10.57;;;;;;;;;;520361;28;1236;-61
2022/12/07 01:14:10;;;;;;;13.77;10.63;;;;;;;;;;521568;28;1208;-61
2022/12/07 01:14:25;;;;;;;14.67;10.40;;;;;;;;;;523750;28;1134;-61
2022/12/07 01:14:41;;;;;;;14.73;10.13;;;;;;;;;;523146;28;1965;-61
2022/12/07 01:14:56;;;;;;;13.43;9.93;;;;;;;;;;522995;28;1142;-62
2022/12/07 01:15:12;;;;;;;13.40;9.77;;;;;;;;;;523032;28;1281;-61
2022/12/07 01:15:27;;;;;;;14.03;10.03;;;;;;;;;;522517;28;1426;-61
2022/12/07 01:15:44;;;;;;;14.23;10.40;;;;;;;;;;525640;28;1132;-62
2022/12/07 01:16:01;;;;;;;14.70;10.45;;;;;;;;;;524780;28;1400;-61
2022/12/07 01:16:17;;;;;;;12.38;10.07;;;;;;;;;;522033;28;1382;-61
2022/12/07 01:16:33;;;;;;;12.50;9.82;;;;;;;;;;525379;28;1186;-61
2022/12/07 01:16:48;;;;;;;13.50;10.10;;;;;;;;;;525131;28;1083;-61
2022/12/07 01:17:03;;;;;;;13.00;9.98;;;;;;;;;;519386;28;1519;-61
2022/12/07 01:17:18;;;;;;;14.23;10.00;;;;;;;;;;523724;28;1203;-61
2022/12/07 01:17:34;;;;;;;14.50;10.03;;;;;;;;;;522713;28;1362;-61
2022/12/07 01:17:49;;;;;;;13.10;9.65;;;;;;;;;;520760;28;1102;-61
2022/12/07 01:18:04;;;;;;;13.03;9.60;;;;;;;;;;520529;28;1196;-61
2022/12/07 01:18:20;;;;;;;13.80;9.77;;;;;;;;;;518181;28;1236;-61
2022/12/07 01:18:36;;;;;;;13.37;9.73;;;;;;;;;;519284;28;1226;-61
2022/12/07 01:18:53;;;;;;;12.55;9.80;;;;;;;;;;520243;28;1189;-61
2022/12/07 01:19:08;;;;;;;12.18;9.45;;;;;;;;;;517804;28;1335;-61
2022/12/07 01:19:24;;;;;;;12.87;9.60;;;;;;;;;;518691;28;1015;-61
2022/12/07 01:19:39;;;;;;;13.43;9.87;;;;;;;;;;518940;28;1126;-61
2022/12/07 01:19:54;;;;;;;12.52;9.60;;;;;;;;;;520975;28;1134;-61
2022/12/07 01:20:10;;;;;;;12.23;9.50;;;;;;;;;;520296;28;1479;-61
2022/12/07 01:20:25;;;;;;;12.43;9.38;;;;;;;;;;522736;28;1101;-61
2022/12/07 01:20:41;;;;;;;13.93;9.70;;;;;;;;;;520490;28;1350;-61
2022/12/07 01:21:26;;;;;;;14.07;9.83;;;;;;;;;;519489;28;1086;-61
2022/12/07 01:21:42;;;;;;;12.48;10.13;;;;;;;;;;511600;28;1488;-61
2022/12/07 01:21:57;;;;;;;13.00;10.00;;;;;;;;;;511629;28;1448;-61
2022/12/07 01:22:12;;;;;;;13.13;10.17;;;;;;;;;;523017;28;1274;-62
2022/12/07 01:22:27;;;;;;;13.03;10.23;;;;;;;;;;519649;28;1461;-61
2022/12/07 01:22:43;;;;;;;13.15;9.95;;;;;;;;;;524786;28;1136;-61
2022/12/07 01:22:58;;;;;;;13.03;10.03;;;;;;;;;;522909;28;1133;-61
2022/12/07 01:23:14;;;;;;;13.87;10.13;;;;;;;;;;523935;28;970;-61
2022/12/07 01:23:29;;;;;;;13.50;9.98;;;;;;;;;;519984;28;1317;-61
2022/12/07 01:23:45;;;;;;;12.43;9.95;;;;;;;;;;520997;28;1236;-62
2022/12/07 01:24:01;;;;;;;12.10;10.00;;;;;;;;;;523501;28;1200;-61
2022/12/07 01:24:16;;;;;;;12.25;10.10;;;;;;;;;;520988;28;1401;-61
2022/12/07 01:24:32;;;;;;;12.40;10.03;;;;;;;;;;521214;28;1130;-61
2022/12/07 01:24:47;;;;;;;13.13;10.30;;;;;;;;;;520610;28;1294;-61
2022/12/07 01:25:03;;;;;;;13.40;10.07;;;;;;;;;;522392;28;1416;-61
2022/12/07 01:25:18;;;;;;;12.50;9.73;;;;;;;;;;520201;28;1441;-61
2022/12/07 01:25:33;;;;;;;11.93;9.83;;;;;;;;;;523244;28;1087;-61
2022/12/07 01:25:54;;;;;;;11.67;9.73;;;;;;;;;;521175;28;1343;-61
2022/12/07 01:26:12;;;;;;;13.15;10.02;;;;;;;;;;525408;28;1200;-61
2022/12/07 01:26:28;;;;;;;14.43;10.57;;;;;;;;;;522754;28;1427;-61
2022/12/07 01:26:43;;;;;;;14.33;10.40;;;;;;;;;;522609;28;1197;-61
2022/12/07 01:26:58;;;;;;;13.00;9.90;;;;;;;;;;522950;28;1187;-62
2022/12/07 01:27:14;;;;;;;12.23;9.60;;;;;;;;;;521169;28;1186;-61
2022/12/07 01:27:29;;;;;;;12.20;9.43;;;;;;;;;;520420;28;1300;-61
2022/12/07 01:27:44;;;;;;;12.87;10.00;;;;;;;;;;519775;28;1185;-61
2022/12/07 01:28:00;;;;;;;12.98;10.07;;;;;;;;;;520484;28;1208;-61
2022/12/07 01:28:15;;;;;;;11.87;9.40;;;;;;;;;;521210;28;1209;-61
2022/12/07 01:28:30;;;;;;;11.90;9.73;;;;;;;;;;523275;28;1196;-61
2022/12/07 01:28:46;;;;;;;12.48;10.18;;;;;;;;;;522064;28;1230;-61
2022/12/07 01:29:01;;;;;;;13.40;10.43;;;;;;;;;;520191;28;1312;-62
2022/12/07 01:29:17;;;;;;;13.60;10.32;;;;;;;;;;521790;28;1336;-61
2022/12/07 01:29:32;;;;;;;12.80;9.93;;;;;;;;;;522337;28;1255;-61
2022/12/07 01:29:47;;;;;;;13.10;10.33;;;;;;;;;;522831;28;1082;-62
2022/12/07 01:30:06;;;;;;;13.77;10.32;;;;;;;;;;520138;28;1323;-61
2022/12/07 01:30:21;;;;;;;14.32;10.55;;;;;;;;;;521883;28;1184;-61
2022/12/07 01:30:36;;;;;;;13.90;10.68;;;;;;;;;;520790;28;1323;-61
2022/12/07 01:30:58;;;;;;;13.10;10.20;;;;;;;;;;520111;28;1570;-62
2022/12/07 01:31:16;;;;;;;13.02;10.40;;;;;;;;;;519822;28;1298;-62
2022/12/07 01:31:31;;;;;;;13.30;10.18;;;;;;;;;;523580;28;1278;-61
2022/12/07 01:31:48;;;;;;;13.20;10.13;;;;;;;;;;522912;28;1214;-61
2022/12/07 01:32:04;;;;;;;13.70;10.25;;;;;;;;;;523812;28;978;-61
2022/12/07 01:32:20;;;;;;;14.00;10.40;;;;;;;;;;522317;28;1279;-59
2022/12/07 01:32:35;;;;;;;12.73;9.85;;;;;;;;;;522781;28;1043;-62
2022/12/07 01:32:50;;;;;;;12.73;10.00;;;;;;;;;;521158;28;1216;-61
2022/12/07 01:33:06;;;;;;;13.30;10.40;;;;;;;;;;520444;28;1156;-61
2022/12/07 01:33:21;;;;;;;13.70;10.20;;;;;;;;;;520055;28;1098;-61
2022/12/07 01:33:38;;;;;;;15.48;10.30;;;;;;;;;;520297;28;1309;-61
2022/12/07 01:33:56;;;;;;;14.93;10.23;;;;;;;;;;520930;28;1436;-61
2022/12/07 01:34:11;;;;;;;13.10;10.10;;;;;;;;;;520415;28;1148;-61
2022/12/07 01:34:26;;;;;;;12.83;9.93;;;;;;;;;;519018;28;1320;-61
2022/12/07 01:34:42;;;;;;;12.97;9.90;;;;;;;;;;518921;28;1979;-61
2022/12/07 01:34:57;;;;;;;13.60;10.27;;;;;;;;;;519817;28;1214;-61
2022/12/07 01:35:12;;;;;;;14.03;10.47;;;;;;;;;;518802;28;1423;-62
2022/12/07 01:35:28;;;;;;;13.20;10.23;;;;;;;;;;520112;28;1038;-61
2022/12/07 01:35:43;;;;;;;12.87;10.13;;;;;;;;;;520362;28;1082;-61
2022/12/07 01:36:15;;;;;;;13.80;10.18;;;;;;;;;;522908;28;1208;-61
2022/12/07 01:36:33;;;;;;;13.77;10.52;;;;;;;;;;524613;28;939;-61